createdAt,value
2018-11-21T00:00:45.643Z,12.35
2018-11-21T00:03:14.280Z,11.33
2018-11-21T00:05:42.958Z,11.28
2018-11-21T00:08:11.616Z,11.15
2018-11-21T00:10:40.272Z,10.53
2018-11-21T00:13:08.971Z,12.40
2018-11-21T00:15:37.622Z,12.40
2018-11-21T00:18:06.498Z,10.20
2018-11-21T00:20:35.145Z,12.00
2018-11-21T00:23:03.825Z,12.40
2018-11-21T00:25:32.487Z,10.90
2018-11-21T00:28:01.329Z,12.15
2018-11-21T00:30:29.970Z,11.25
2018-11-21T00:32:58.681Z,11.55
2018-11-21T00:35:27.281Z,10.53
2018-11-21T00:37:55.921Z,11.85
2018-11-21T00:40:24.591Z,9.68
2018-11-21T00:42:53.277Z,11.10
2018-11-21T00:45:21.941Z,10.45
2018-11-21T00:47:50.563Z,9.95
2018-11-21T00:50:19.542Z,9.60
2018-11-21T00:52:48.182Z,11.10
2018-11-21T00:55:16.839Z,10.88
2018-11-21T00:57:45.525Z,10.25
2018-11-21T01:00:14.160Z,10.50
2018-11-21T01:02:42.826Z,9.83
2018-11-21T01:05:11.470Z,10.28
2018-11-21T01:07:40.155Z,9.38
2018-11-21T01:10:08.790Z,9.13
2018-11-21T01:12:37.471Z,9.60
2018-11-21T01:15:06.602Z,10.20
2018-11-21T01:17:35.245Z,10.18
2018-11-21T01:20:03.962Z,8.25
2018-11-21T01:22:32.661Z,9.70
2018-11-21T01:25:01.330Z,9.63
2018-11-21T01:27:29.959Z,8.58
2018-11-21T01:29:58.636Z,9.30
2018-11-21T01:32:27.267Z,9.23
2018-11-21T01:34:55.960Z,10.28
2018-11-21T01:37:24.603Z,10.58
2018-11-21T01:39:53.260Z,10.50
2018-11-21T01:42:21.912Z,9.80
2018-11-21T01:44:50.567Z,10.08
2018-11-21T01:47:19.239Z,9.73
2018-11-21T01:49:47.872Z,8.83
2018-11-21T01:52:16.555Z,9.60
2018-11-21T01:54:45.195Z,8.90
2018-11-21T01:57:13.862Z,9.75
2018-11-21T01:59:42.758Z,9.85
2018-11-21T02:02:11.592Z,8.80
2018-11-21T02:04:40.231Z,8.53
2018-11-21T02:07:08.892Z,8.50
2018-11-21T02:09:37.557Z,8.35
2018-11-21T02:12:06.458Z,8.15
2018-11-21T02:14:35.133Z,8.18
2018-11-21T02:17:03.811Z,9.25
2018-11-21T02:19:32.519Z,9.88
2018-11-21T02:22:01.167Z,8.50
2018-11-21T02:24:29.837Z,10.23
2018-11-21T02:26:58.496Z,9.60
2018-11-21T02:29:27.132Z,9.33
2018-11-21T02:31:56.017Z,9.85
2018-11-21T02:34:24.659Z,8.23
2018-11-21T02:36:53.407Z,9.00
2018-11-21T02:39:22.040Z,9.73
2018-11-21T02:41:50.716Z,8.95
2018-11-21T02:44:19.347Z,8.50
2018-11-21T02:46:48.063Z,9.48
2018-11-21T02:49:16.711Z,8.00
2018-11-21T02:51:45.349Z,8.43
2018-11-21T02:54:14.018Z,9.03
2018-11-21T02:57:21.389Z,8.83
2018-11-21T02:59:51.711Z,8.03
2018-11-21T03:02:20.392Z,8.45
2018-11-21T03:04:49.047Z,7.87
2018-11-21T03:07:17.715Z,10.30
2018-11-21T03:09:46.476Z,9.43
2018-11-21T03:12:15.118Z,7.85
2018-11-21T03:14:43.763Z,8.43
2018-11-21T03:17:12.447Z,8.15
2018-11-21T03:19:41.094Z,8.20
2018-11-21T03:22:09.737Z,9.20
2018-11-21T03:24:38.392Z,7.78
2018-11-21T03:27:07.069Z,8.40
2018-11-21T03:29:35.724Z,8.05
2018-11-21T03:32:04.769Z,7.45
2018-11-21T03:34:33.298Z,8.93
2018-11-21T03:37:01.982Z,7.95
2018-11-21T03:39:30.624Z,7.15
2018-11-21T03:41:59.263Z,7.37
2018-11-21T03:44:27.822Z,8.03
2018-11-21T03:46:56.383Z,7.40
2018-11-21T03:49:25.066Z,7.85
2018-11-21T03:51:53.600Z,8.30
2018-11-21T03:54:22.257Z,7.83
2018-11-21T03:56:50.893Z,8.83
2018-11-21T03:59:19.588Z,7.50
2018-11-21T04:01:48.133Z,7.43
2018-11-21T04:04:16.783Z,6.70
2018-11-21T04:06:45.436Z,6.83
2018-11-21T04:09:14.184Z,8.40
2018-11-21T04:11:42.832Z,7.33
2018-11-21T04:14:11.322Z,7.60
2018-11-21T04:16:39.998Z,8.30
2018-11-21T04:19:08.549Z,7.30
2018-11-21T04:21:37.467Z,8.70
2018-11-21T04:24:06.270Z,7.80
2018-11-21T04:26:34.917Z,8.53
2018-11-21T04:29:03.806Z,7.97
2018-11-21T04:31:32.348Z,7.13
2018-11-21T04:34:00.962Z,8.30
2018-11-21T04:36:29.521Z,7.90
2018-11-21T04:38:58.272Z,7.90
2018-11-21T04:41:26.858Z,7.63
2018-11-21T04:43:55.420Z,6.77
2018-11-21T04:46:24.036Z,7.93
2018-11-21T04:48:52.610Z,8.63
2018-11-21T04:51:21.241Z,7.70
2018-11-21T04:53:49.809Z,7.40
2018-11-21T04:56:18.428Z,8.03
2018-11-21T04:58:47.476Z,7.23
2018-11-21T05:01:16.118Z,7.30
2018-11-21T05:03:44.766Z,7.00
2018-11-21T05:06:13.238Z,6.67
2018-11-21T05:08:41.841Z,7.20
2018-11-21T05:11:10.410Z,7.27
2018-11-21T05:13:39.027Z,6.20
2018-11-21T05:16:07.926Z,7.03
2018-11-21T05:18:36.745Z,7.30
2018-11-21T05:21:05.484Z,7.87
2018-11-21T05:23:34.053Z,6.97
2018-11-21T05:26:02.693Z,6.57
2018-11-21T05:28:31.245Z,8.00
2018-11-21T05:30:59.941Z,7.20
2018-11-21T05:33:28.497Z,7.20
2018-11-21T05:35:57.088Z,7.40
2018-11-21T05:38:25.637Z,7.50
2018-11-21T05:40:54.217Z,7.57
2018-11-21T05:43:22.767Z,6.53
2018-11-21T05:45:51.584Z,7.90
2018-11-21T05:48:20.148Z,6.57
2018-11-21T05:50:48.777Z,6.77
2018-11-21T05:53:17.411Z,7.43
2018-11-21T05:55:45.929Z,7.17
2018-11-21T05:58:14.502Z,6.80
2018-11-21T06:00:49.002Z,6.73
2018-11-21T06:03:11.634Z,7.57
2018-11-21T06:05:40.177Z,6.70
2018-11-21T06:08:08.754Z,6.50
2018-11-21T06:10:37.335Z,7.20
2018-11-21T06:13:06.229Z,6.40
2018-11-21T06:15:34.786Z,7.27
2018-11-21T06:18:03.333Z,6.23
2018-11-21T06:20:31.995Z,7.10
2018-11-21T06:23:00.562Z,7.03
2018-11-21T06:25:29.219Z,7.80
2018-11-21T06:27:57.812Z,7.97
2018-11-21T06:30:26.626Z,7.27
2018-11-21T06:32:55.209Z,7.43
2018-11-21T06:35:23.769Z,7.50
2018-11-21T06:37:52.346Z,8.00
2018-11-21T06:40:20.913Z,7.50
2018-11-21T06:42:53.403Z,6.23
2018-11-21T06:45:23.739Z,7.33
2018-11-21T06:47:52.357Z,7.50
2018-11-21T06:50:21.069Z,7.57
2018-11-21T06:52:49.766Z,6.47
2018-11-21T06:55:18.352Z,7.13
2018-11-21T06:57:47.047Z,7.17
2018-11-21T07:00:15.640Z,6.60
2018-11-21T07:02:44.261Z,7.40
2018-11-21T07:05:12.921Z,7.80
2018-11-21T07:07:41.428Z,8.30
2018-11-21T07:10:12.747Z,8.43
2018-11-21T07:12:41.525Z,7.47
2018-11-21T07:15:10.288Z,6.80
2018-11-21T07:17:39.213Z,8.37
2018-11-21T07:20:10.056Z,6.83
2018-11-21T07:22:38.937Z,7.30
2018-11-21T07:25:13.417Z,6.50
2018-11-21T07:27:42.069Z,6.90
2018-11-21T07:30:12.856Z,6.97
2018-11-21T07:32:41.434Z,5.70
2018-11-21T07:35:10.358Z,6.50
2018-11-21T07:37:39.872Z,6.07
2018-11-21T07:40:10.305Z,6.90
2018-11-21T07:42:38.868Z,6.83
2018-11-21T07:45:09.732Z,6.37
2018-11-21T07:47:39.755Z,6.27
2018-11-21T07:50:14.201Z,6.03
2018-11-21T07:52:43.013Z,6.60
2018-11-21T07:55:12.317Z,7.20
2018-11-21T07:57:48.303Z,6.43
2018-11-21T08:01:16.246Z,6.50
2018-11-21T08:03:52.518Z,5.80
2018-11-21T08:06:33.999Z,6.30
2018-11-21T08:09:30.319Z,6.47
2018-11-21T08:12:26.914Z,7.40
2018-11-21T08:15:19.103Z,5.90
2018-11-21T08:18:06.743Z,6.80
2018-11-21T08:20:48.903Z,6.63
2018-11-21T08:23:36.521Z,6.50
2018-11-21T08:26:30.243Z,6.43
2018-11-21T08:28:58.853Z,6.90
2018-11-21T08:31:27.676Z,6.63
2018-11-21T08:33:56.284Z,6.07
2018-11-21T08:36:24.928Z,6.80
2018-11-21T08:38:53.507Z,7.70
2018-11-21T08:41:22.041Z,5.90
2018-11-21T08:43:50.638Z,7.50
2018-11-21T08:46:19.212Z,6.37
2018-11-21T08:48:47.836Z,7.43
2018-11-21T08:51:16.602Z,6.20
2018-11-21T08:53:45.079Z,7.23
2018-11-21T08:56:13.657Z,6.10
2018-11-21T08:58:42.197Z,6.10
2018-11-21T09:01:10.891Z,6.30
2018-11-21T09:03:39.379Z,6.50
2018-11-21T09:06:08.156Z,6.13
2018-11-21T09:08:36.713Z,6.27
2018-11-21T09:11:05.518Z,6.27
2018-11-21T09:13:34.131Z,6.50
2018-11-21T09:16:02.797Z,6.77
2018-11-21T09:18:31.368Z,6.47
2018-11-21T09:21:00.103Z,7.03
2018-11-21T09:23:28.644Z,6.23
2018-11-21T09:25:57.279Z,6.83
2018-11-21T09:28:25.870Z,6.80
2018-11-21T09:30:54.414Z,7.57
2018-11-21T09:33:22.962Z,6.30
2018-11-21T09:35:51.576Z,6.33
2018-11-21T09:38:20.187Z,6.63
2018-11-21T09:40:48.860Z,8.30
2018-11-21T09:43:17.405Z,6.07
2018-11-21T09:45:46.137Z,7.80
2018-11-21T09:48:14.681Z,7.40
2018-11-21T09:50:43.244Z,7.67
2018-11-21T09:53:11.899Z,7.50
2018-11-21T09:55:40.615Z,6.90
2018-11-21T09:58:09.049Z,7.30
2018-11-21T10:01:14.414Z,8.03
2018-11-21T10:03:43.014Z,7.57
2018-11-21T10:06:17.070Z,6.63
2018-11-21T10:08:56.300Z,6.60
2018-11-21T10:11:24.853Z,7.30
2018-11-21T10:13:53.592Z,8.60
2018-11-21T10:16:22.184Z,7.70
2018-11-21T10:18:52.457Z,7.10
2018-11-21T10:21:22.798Z,7.13
2018-11-21T10:23:51.370Z,7.47
2018-11-21T10:26:20.092Z,8.47
2018-11-21T10:28:49.341Z,7.87
2018-11-21T10:31:18.021Z,8.00
2018-11-21T10:33:46.620Z,7.63
2018-11-21T10:36:15.315Z,7.33
2018-11-21T10:38:43.926Z,7.30
2018-11-21T10:41:12.490Z,7.00
2018-11-21T10:43:41.138Z,6.77
2018-11-21T10:46:09.755Z,7.37
2018-11-21T10:48:38.479Z,8.00
2018-11-21T10:51:07.030Z,7.17
2018-11-21T10:53:35.617Z,7.70
2018-11-21T10:56:04.268Z,7.53
2018-11-21T10:58:32.829Z,6.77
2018-11-21T11:01:19.374Z,6.50
2018-11-21T11:03:56.216Z,7.30
2018-11-21T11:06:42.236Z,6.43
2018-11-21T11:09:31.983Z,7.30
2018-11-21T11:12:19.638Z,8.03
2018-11-21T11:15:11.433Z,8.63
2018-11-21T11:18:01.930Z,8.30
2018-11-21T11:20:48.126Z,8.47
2018-11-21T11:23:36.984Z,6.67
2018-11-21T11:26:23.670Z,7.20
2018-11-21T11:29:17.142Z,7.53
2018-11-21T11:32:07.273Z,7.13
2018-11-21T11:34:58.875Z,7.67
2018-11-21T11:37:52.195Z,6.60
2018-11-21T11:40:38.370Z,7.03
2018-11-21T11:43:28.781Z,6.40
2018-11-21T11:46:19.121Z,7.20
2018-11-21T11:49:06.716Z,7.80
2018-11-21T11:52:00.183Z,7.80
2018-11-21T11:55:06.290Z,7.40
2018-11-21T11:58:06.198Z,7.27
2018-11-21T12:00:57.587Z,6.80
2018-11-21T12:03:44.183Z,6.60
2018-11-21T12:06:38.031Z,6.60
2018-11-21T12:09:36.471Z,6.60
2018-11-21T12:12:24.186Z,6.67
2018-11-21T12:15:30.178Z,7.10
2018-11-21T12:18:16.367Z,7.13
2018-11-21T12:21:10.354Z,7.43
2018-11-21T12:23:56.721Z,7.77
2018-11-21T12:26:43.068Z,6.23
2018-11-21T12:29:37.287Z,8.17
2018-11-21T12:32:25.145Z,5.87
2018-11-21T12:35:12.758Z,6.90
2018-11-21T12:37:59.010Z,7.03
2018-11-21T12:40:55.353Z,8.30
2018-11-21T12:43:41.674Z,7.80
2018-11-21T12:46:47.409Z,6.87
2018-11-21T12:49:34.810Z,6.07
2018-11-21T12:52:28.445Z,6.83
2018-11-21T12:55:16.883Z,6.90
2018-11-21T12:57:55.731Z,6.43
2018-11-21T13:00:46.400Z,7.43
2018-11-21T13:03:32.842Z,8.00
2018-11-21T13:06:19.049Z,6.97
2018-11-21T13:09:05.197Z,6.40
2018-11-21T13:11:51.630Z,6.60
2018-11-21T13:14:42.069Z,7.17
2018-11-21T13:17:22.542Z,7.40
2018-11-21T13:20:09.871Z,6.40
2018-11-21T13:23:03.443Z,7.50
2018-11-21T13:25:47.434Z,6.37
2018-11-21T13:28:34.298Z,7.53
2018-11-21T13:31:20.348Z,6.97
2018-11-21T13:34:06.408Z,7.33
2018-11-21T13:36:59.646Z,7.87
2018-11-21T13:39:47.342Z,7.67
2018-11-21T13:42:30.444Z,7.07
2018-11-21T13:45:15.930Z,7.30
2018-11-21T13:48:17.384Z,7.70
